createdAt,value
2018-09-26T00:00:39.202Z,9.70
2018-09-26T00:03:43.403Z,9.70
2018-09-26T00:06:13.191Z,9.70
2018-09-26T00:08:42.967Z,9.60
2018-09-26T00:11:13.201Z,9.50
2018-09-26T00:13:42.036Z,9.60
2018-09-26T00:16:12.011Z,9.60
2018-09-26T00:18:41.571Z,9.60
2018-09-26T00:21:12.497Z,9.50
2018-09-26T00:23:42.266Z,9.50
2018-09-26T00:26:12.389Z,9.50
2018-09-26T00:28:42.227Z,9.50
2018-09-26T00:31:12.550Z,9.50
2018-09-26T00:33:42.431Z,9.50
2018-09-26T00:36:12.815Z,9.40
2018-09-26T00:38:42.047Z,9.40
2018-09-26T00:41:12.082Z,9.40
2018-09-26T00:43:41.942Z,9.40
2018-09-26T00:46:12.074Z,9.30
2018-09-26T00:48:42.417Z,9.30
2018-09-26T00:51:13.483Z,9.20
2018-09-26T00:53:43.739Z,9.20
2018-09-26T00:56:13.545Z,9.10
2018-09-26T00:58:42.631Z,9.20
2018-09-26T01:01:13.033Z,9.20
2018-09-26T01:03:42.366Z,9.20
2018-09-26T01:06:12.773Z,9.20
2018-09-26T01:08:42.863Z,9.20
2018-09-26T01:11:13.084Z,9.20
2018-09-26T01:13:43.417Z,9.20
2018-09-26T01:16:14.299Z,9.20
2018-09-26T01:18:44.235Z,9.20
2018-09-26T01:21:14.602Z,9.10
2018-09-26T01:23:45.405Z,9.10
2018-09-26T01:26:14.670Z,9.10
2018-09-26T01:28:44.220Z,9.10
2018-09-26T01:31:15.322Z,9.10
2018-09-26T01:33:45.092Z,9.10
2018-09-26T01:36:14.723Z,9.10
2018-09-26T01:38:44.454Z,8.90
2018-09-26T01:41:14.142Z,8.90
2018-09-26T01:43:43.539Z,8.90
2018-09-26T01:46:14.065Z,8.90
2018-09-26T01:48:43.921Z,8.90
2018-09-26T01:51:13.745Z,8.80
2018-09-26T01:53:43.661Z,8.80
2018-09-26T01:56:14.316Z,8.80
2018-09-26T01:58:43.396Z,8.80
2018-09-26T02:01:12.649Z,8.80
2018-09-26T02:03:43.070Z,8.80
2018-09-26T02:06:13.175Z,8.70
2018-09-26T02:08:42.498Z,8.70
2018-09-26T02:11:11.842Z,8.70
2018-09-26T02:13:41.891Z,8.70
2018-09-26T02:16:12.114Z,8.70
2018-09-26T02:18:40.954Z,8.70
2018-09-26T02:21:11.642Z,8.70
2018-09-26T02:23:43.054Z,8.70
2018-09-26T02:26:13.428Z,8.60
2018-09-26T02:28:43.195Z,8.60
2018-09-26T02:31:12.852Z,8.60
2018-09-26T02:33:43.179Z,8.50
2018-09-26T02:36:12.784Z,8.50
2018-09-26T02:38:42.842Z,8.50
2018-09-26T02:41:12.063Z,8.40
2018-09-26T02:43:41.641Z,8.50
2018-09-26T02:46:11.005Z,8.50
2018-09-26T02:48:46.203Z,8.50
2018-09-26T02:51:15.883Z,8.50
2018-09-26T02:53:45.525Z,8.50
2018-09-26T02:56:15.234Z,8.50
2018-09-26T02:58:44.274Z,8.50
2018-09-26T03:01:14.194Z,8.50
2018-09-26T03:03:43.493Z,8.60
2018-09-26T03:06:13.296Z,8.50
2018-09-26T03:08:43.716Z,8.50
2018-09-26T03:11:13.192Z,8.50
2018-09-26T03:13:42.226Z,8.40
2018-09-26T03:16:12.964Z,8.40
2018-09-26T03:18:43.381Z,8.40
2018-09-26T03:21:13.397Z,8.40
2018-09-26T03:23:43.280Z,8.30
2018-09-26T03:26:12.304Z,8.30
2018-09-26T03:28:42.752Z,8.30
2018-09-26T03:31:12.499Z,8.30
2018-09-26T03:33:42.248Z,8.30
2018-09-26T03:36:13.429Z,8.30
2018-09-26T03:38:43.205Z,8.40
2018-09-26T03:41:13.985Z,8.40
2018-09-26T03:43:43.669Z,8.40
2018-09-26T03:46:13.293Z,8.40
2018-09-26T03:48:42.757Z,8.50
2018-09-26T03:51:13.356Z,8.40
2018-09-26T03:53:42.287Z,8.50
2018-09-26T03:56:11.815Z,8.40
2018-09-26T03:58:41.683Z,8.40
2018-09-26T04:01:12.487Z,8.50
2018-09-26T04:03:41.679Z,8.40
2018-09-26T04:06:12.051Z,8.50
2018-09-26T04:08:43.334Z,8.40
2018-09-26T04:11:13.772Z,8.40
2018-09-26T04:13:44.204Z,8.40
2018-09-26T04:16:14.030Z,8.40
2018-09-26T04:18:44.052Z,8.30
2018-09-26T04:21:14.448Z,8.40
2018-09-26T04:23:44.388Z,8.30
2018-09-26T04:26:14.230Z,8.30
2018-09-26T04:28:44.302Z,8.20
2018-09-26T04:31:14.206Z,8.20
2018-09-26T04:33:44.345Z,8.20
2018-09-26T04:36:14.143Z,8.10
2018-09-26T04:38:43.795Z,8.00
2018-09-26T04:41:13.287Z,8.00
2018-09-26T04:43:42.372Z,8.00
2018-09-26T04:46:12.255Z,7.90
2018-09-26T04:48:43.211Z,8.00
2018-09-26T04:51:12.719Z,8.00
2018-09-26T04:53:43.150Z,7.90
2018-09-26T04:56:12.818Z,7.90
2018-09-26T04:58:41.930Z,8.00
2018-09-26T05:01:11.010Z,8.00
2018-09-26T05:03:40.774Z,8.10
2018-09-26T05:06:10.324Z,8.00
2018-09-26T05:08:40.509Z,8.00
2018-09-26T05:11:10.421Z,8.20
2018-09-26T05:13:40.516Z,8.50
2018-09-26T05:16:10.488Z,8.60
2018-09-26T05:18:40.535Z,8.90
2018-09-26T05:21:10.564Z,8.90
2018-09-26T05:23:41.117Z,8.80
2018-09-26T05:26:10.405Z,8.80
2018-09-26T05:28:40.191Z,8.70
2018-09-26T05:31:09.624Z,8.70
2018-09-26T05:33:40.049Z,8.70
2018-09-26T05:36:09.174Z,8.70
2018-09-26T05:38:38.399Z,8.70
2018-09-26T05:41:08.189Z,8.80
2018-09-26T05:43:39.193Z,8.70
2018-09-26T05:46:09.742Z,8.70
2018-09-26T05:48:38.716Z,8.80
2018-09-26T05:51:09.156Z,8.90
2018-09-26T05:53:39.820Z,8.90
2018-09-26T05:56:08.918Z,9.20
2018-09-26T05:58:38.947Z,9.30
2018-09-26T06:01:08.957Z,9.30
2018-09-26T06:03:39.013Z,9.40
2018-09-26T06:06:09.969Z,9.50
2018-09-26T06:08:39.166Z,9.60
2018-09-26T06:11:08.347Z,10.10
2018-09-26T06:13:39.147Z,10.30
2018-09-26T06:16:09.883Z,10.40
2018-09-26T06:18:39.779Z,10.30
2018-09-26T06:21:11.596Z,10.10
2018-09-26T06:23:41.267Z,10.30
2018-09-26T06:26:11.133Z,10.50
2018-09-26T06:28:40.975Z,10.50
2018-09-26T06:31:11.116Z,10.70
2018-09-26T06:33:40.282Z,11.10
2018-09-26T06:36:10.297Z,11.30
2018-09-26T06:38:41.259Z,11.60
2018-09-26T06:41:10.827Z,11.90
2018-09-26T06:43:41.271Z,11.70
2018-09-26T06:46:10.627Z,11.50
2018-09-26T06:48:40.999Z,11.30
2018-09-26T06:51:12.056Z,11.50
2018-09-26T06:53:42.400Z,11.40
2018-09-26T06:56:13.005Z,11.10
2018-09-26T06:58:43.135Z,10.90
2018-09-26T07:01:13.360Z,10.70
2018-09-26T07:03:43.769Z,10.60
2018-09-26T07:06:14.058Z,10.50
2018-09-26T07:08:44.615Z,10.30
2018-09-26T07:11:14.902Z,10.30
2018-09-26T07:13:44.472Z,10.30
2018-09-26T07:16:14.392Z,10.30
2018-09-26T07:18:44.490Z,10.40
2018-09-26T07:21:13.839Z,10.60
2018-09-26T07:23:43.416Z,10.80
2018-09-26T07:26:13.633Z,11.70
2018-09-26T07:28:43.742Z,14.00
2018-09-26T07:31:13.362Z,15.70
2018-09-26T07:33:43.461Z,16.70
2018-09-26T07:36:13.077Z,17.60
2018-09-26T07:38:42.685Z,17.10
2018-09-26T07:41:12.031Z,17.20
2018-09-26T07:43:41.528Z,17.30
2018-09-26T07:46:10.798Z,16.80
2018-09-26T07:48:40.721Z,17.30
2018-09-26T07:51:09.868Z,17.10
2018-09-26T07:53:38.945Z,15.80
2018-09-26T07:56:07.791Z,15.40
2018-09-26T07:58:38.338Z,15.60
2018-09-26T08:01:08.899Z,15.10
2018-09-26T08:03:39.138Z,15.60
2018-09-26T08:06:08.211Z,16.40
2018-09-26T08:08:39.389Z,17.40
2018-09-26T08:11:09.284Z,17.60
2018-09-26T08:13:38.940Z,17.40
2018-09-26T08:16:08.288Z,17.40
2018-09-26T08:18:38.580Z,18.10
2018-09-26T08:21:09.078Z,18.40
2018-09-26T08:23:38.980Z,19.10
2018-09-26T08:26:08.584Z,20.70
2018-09-26T08:28:38.641Z,23.10
2018-09-26T08:31:08.297Z,23.20
2018-09-26T08:33:37.986Z,22.20
2018-09-26T08:36:08.421Z,20.90
2018-09-26T08:38:38.574Z,20.30
2018-09-26T08:41:08.822Z,19.90
2018-09-26T08:43:38.397Z,21.00
2018-09-26T08:46:08.512Z,20.90
2018-09-26T08:48:39.277Z,21.70
2018-09-26T08:51:09.463Z,20.60
2018-09-26T08:53:38.742Z,18.90
2018-09-26T08:56:09.315Z,18.10
2018-09-26T08:58:39.417Z,17.10
2018-09-26T09:01:14.068Z,16.40
2018-09-26T09:03:43.887Z,15.50
2018-09-26T09:06:13.808Z,15.00
2018-09-26T09:08:43.072Z,14.80
2018-09-26T09:11:12.914Z,14.40
2018-09-26T09:13:42.648Z,14.40
2018-09-26T09:16:11.998Z,14.30
2018-09-26T09:18:41.976Z,14.30
2018-09-26T09:21:11.862Z,14.30
2018-09-26T09:23:41.603Z,14.30
2018-09-26T09:26:11.732Z,14.30
2018-09-26T09:28:41.775Z,14.50
2018-09-26T09:31:10.870Z,14.70
2018-09-26T09:33:40.396Z,15.00
2018-09-26T09:36:09.525Z,15.00
2018-09-26T09:38:38.805Z,15.00
2018-09-26T09:41:08.230Z,15.20
2018-09-26T09:43:38.378Z,15.40
2018-09-26T09:46:09.289Z,15.40
2018-09-26T09:48:39.364Z,15.60
2018-09-26T09:51:09.975Z,15.90
2018-09-26T09:53:39.346Z,15.80
2018-09-26T09:56:08.853Z,15.70
2018-09-26T09:58:39.647Z,15.80
2018-09-26T10:01:15.095Z,16.00
2018-09-26T10:03:44.525Z,16.20
2018-09-26T10:06:13.920Z,16.40
2018-09-26T10:08:43.562Z,16.50
2018-09-26T10:11:13.154Z,16.50
2018-09-26T10:13:43.718Z,16.70
2018-09-26T10:16:13.241Z,16.80
2018-09-26T10:18:43.125Z,16.80
2018-09-26T10:21:12.993Z,16.50
2018-09-26T10:23:42.176Z,16.50
2018-09-26T10:26:12.094Z,16.30
2018-09-26T10:28:41.793Z,16.30
2018-09-26T10:31:11.830Z,16.60
2018-09-26T10:33:42.128Z,16.70
2018-09-26T10:36:11.559Z,17.00
2018-09-26T10:38:40.772Z,17.00
2018-09-26T10:41:10.830Z,16.90
2018-09-26T10:43:40.464Z,17.00
2018-09-26T10:46:11.998Z,16.80
2018-09-26T10:48:42.026Z,16.80
2018-09-26T10:51:12.222Z,16.70
2018-09-26T10:53:42.206Z,16.90
2018-09-26T10:56:12.355Z,16.90
2018-09-26T10:58:42.304Z,16.70
2018-09-26T11:01:11.472Z,16.50
2018-09-26T11:03:41.429Z,16.50
2018-09-26T11:06:11.614Z,16.60
2018-09-26T11:08:42.061Z,16.70
2018-09-26T11:11:12.611Z,16.70
2018-09-26T11:13:42.424Z,16.80
2018-09-26T11:16:11.955Z,16.50
2018-09-26T11:18:41.442Z,16.50
2018-09-26T11:21:11.113Z,16.70
2018-09-26T11:23:41.096Z,16.70
2018-09-26T11:26:11.183Z,16.50
2018-09-26T11:28:41.192Z,16.30
2018-09-26T11:31:10.229Z,16.20
2018-09-26T11:33:39.332Z,16.10
2018-09-26T11:36:09.170Z,16.10
2018-09-26T11:38:39.180Z,16.10
2018-09-26T11:41:08.866Z,16.20
2018-09-26T11:43:38.244Z,16.30
2018-09-26T11:46:07.634Z,16.40
2018-09-26T11:48:38.292Z,16.50
2018-09-26T11:51:08.106Z,16.50
2018-09-26T11:53:39.585Z,16.40
2018-09-26T11:56:09.900Z,16.50
2018-09-26T11:58:38.981Z,16.50
2018-09-26T12:01:09.188Z,16.60
2018-09-26T12:03:38.474Z,16.50
2018-09-26T12:06:08.211Z,16.70
2018-09-26T12:08:38.540Z,16.80
2018-09-26T12:11:08.488Z,16.80
2018-09-26T12:13:38.331Z,16.90
2018-09-26T12:16:08.932Z,16.80
2018-09-26T12:18:39.080Z,16.70
2018-09-26T12:21:08.687Z,16.70
2018-09-26T12:23:38.950Z,16.70
2018-09-26T12:26:09.395Z,16.70
2018-09-26T12:28:39.859Z,16.80
2018-09-26T12:31:10.022Z,16.90
2018-09-26T12:33:40.252Z,17.00
2018-09-26T12:36:11.197Z,16.90
2018-09-26T12:38:40.698Z,17.00
2018-09-26T12:41:10.365Z,17.00
2018-09-26T12:43:39.627Z,17.00
2018-09-26T12:46:10.447Z,16.90
2018-09-26T12:48:41.750Z,16.90
2018-09-26T12:51:11.907Z,16.90
2018-09-26T12:53:41.165Z,17.00
2018-09-26T12:56:10.953Z,16.80
2018-09-26T12:58:40.752Z,16.90
2018-09-26T13:01:10.721Z,16.90
2018-09-26T13:03:41.343Z,17.00
2018-09-26T13:06:10.653Z,17.00
2018-09-26T13:08:40.958Z,17.00
2018-09-26T13:11:11.591Z,17.00
2018-09-26T13:13:41.693Z,17.00
2018-09-26T13:16:12.342Z,17.00
2018-09-26T13:18:42.160Z,16.90
2018-09-26T13:21:12.478Z,16.90
2018-09-26T13:23:42.215Z,17.00
2018-09-26T13:26:11.950Z,17.00
2018-09-26T13:28:42.219Z,17.00
2018-09-26T13:31:12.084Z,17.10
2018-09-26T13:33:42.294Z,17.10
2018-09-26T13:36:12.107Z,17.10
2018-09-26T13:38:41.915Z,17.10
2018-09-26T13:41:12.046Z,17.20
2018-09-26T13:43:42.049Z,17.20
2018-09-26T13:46:11.431Z,17.20
2018-09-26T13:48:41.148Z,17.20
2018-09-26T13:51:12.302Z,17.20
2018-09-26T13:53:41.986Z,17.20
2018-09-26T13:56:12.243Z,17.10
2018-09-26T13:58:43.043Z,17.10
2018-09-26T14:01:13.767Z,17.00
2018-09-26T14:03:43.303Z,17.00
2018-09-26T14:06:14.733Z,17.00
2018-09-26T14:08:44.713Z,16.90
2018-09-26T14:11:14.293Z,16.90
2018-09-26T14:13:44.580Z,17.00
2018-09-26T14:16:15.584Z,17.00
2018-09-26T14:18:46.339Z,17.00
2018-09-26T14:21:16.413Z,17.00
2018-09-26T14:23:46.507Z,17.00
2018-09-26T14:26:17.828Z,17.00
2018-09-26T14:28:47.876Z,17.00
2018-09-26T14:31:17.810Z,17.00
2018-09-26T14:33:47.691Z,17.10
2018-09-26T14:36:17.338Z,17.10
2018-09-26T14:38:47.974Z,17.10
2018-09-26T14:41:17.719Z,17.10
2018-09-26T14:43:47.802Z,17.10
2018-09-26T14:46:17.398Z,17.10
2018-09-26T14:48:46.561Z,17.10
2018-09-26T14:51:16.375Z,17.10
2018-09-26T14:53:45.387Z,17.10
2018-09-26T14:56:14.860Z,17.10
2018-09-26T14:58:44.360Z,17.20
2018-09-26T15:01:13.639Z,17.20
2018-09-26T15:03:43.378Z,17.10
2018-09-26T15:06:12.634Z,17.10
2018-09-26T15:08:41.909Z,17.00
2018-09-26T15:11:11.702Z,17.00
2018-09-26T15:13:40.913Z,17.00
2018-09-26T15:16:10.824Z,17.00
2018-09-26T15:18:40.441Z,17.00
2018-09-26T15:21:10.847Z,17.00
2018-09-26T15:23:40.798Z,17.00
2018-09-26T15:26:10.375Z,17.00
2018-09-26T15:28:40.089Z,17.00
2018-09-26T15:31:09.917Z,17.00
2018-09-26T15:33:39.673Z,16.90
2018-09-26T15:36:09.356Z,16.90
2018-09-26T15:38:39.920Z,16.90
2018-09-26T15:41:09.450Z,16.90
2018-09-26T15:43:39.491Z,16.90
2018-09-26T15:46:09.721Z,16.90
2018-09-26T15:48:39.955Z,16.90
2018-09-26T15:51:09.530Z,16.80
2018-09-26T15:53:38.896Z,16.80
2018-09-26T15:56:09.574Z,16.80
2018-09-26T15:58:39.430Z,16.70
2018-09-26T16:01:09.946Z,16.70
2018-09-26T16:03:40.346Z,16.70
2018-09-26T16:06:11.323Z,16.70
2018-09-26T16:08:41.286Z,16.60
2018-09-26T16:11:12.113Z,16.60
2018-09-26T16:13:42.368Z,16.60
2018-09-26T16:16:12.251Z,16.50
2018-09-26T16:18:42.437Z,16.60
2018-09-26T16:21:12.598Z,16.60
2018-09-26T16:23:41.833Z,16.60
2018-09-26T16:26:11.258Z,16.60
2018-09-26T16:28:41.592Z,16.50
2018-09-26T16:31:12.180Z,16.50
2018-09-26T16:33:41.955Z,16.40
2018-09-26T16:36:12.256Z,16.40
2018-09-26T16:38:42.404Z,16.30
2018-09-26T16:41:12.782Z,16.30
2018-09-26T16:43:43.173Z,16.30
2018-09-26T16:46:13.032Z,16.30
2018-09-26T16:48:43.219Z,16.20
2018-09-26T16:51:12.897Z,16.20
2018-09-26T16:53:43.125Z,16.10
2018-09-26T16:56:12.851Z,16.10
2018-09-26T16:58:42.439Z,16.10
2018-09-26T17:01:13.478Z,16.00
2018-09-26T17:03:43.387Z,16.00
2018-09-26T17:06:12.946Z,16.00
2018-09-26T17:08:42.885Z,15.90
2018-09-26T17:11:12.817Z,15.90
2018-09-26T17:13:43.258Z,15.90
2018-09-26T17:16:13.479Z,15.90
2018-09-26T17:18:43.419Z,15.90
2018-09-26T17:21:13.241Z,15.90
2018-09-26T17:23:43.028Z,15.90
2018-09-26T17:26:12.761Z,15.90
2018-09-26T17:28:42.495Z,15.90
2018-09-26T17:31:12.255Z,15.90
2018-09-26T17:33:42.388Z,16.00
2018-09-26T17:36:11.833Z,16.00
2018-09-26T17:38:41.758Z,16.00
2018-09-26T17:41:12.489Z,16.00
2018-09-26T17:43:41.729Z,16.00
2018-09-26T17:46:11.066Z,16.00
2018-09-26T17:48:40.670Z,16.00
2018-09-26T17:51:10.384Z,16.00
2018-09-26T17:53:39.512Z,16.00
2018-09-26T17:56:09.265Z,15.90
2018-09-26T17:58:38.414Z,16.00
2018-09-26T18:01:08.364Z,16.00
2018-09-26T18:03:38.795Z,16.00
2018-09-26T18:06:09.119Z,16.00
2018-09-26T18:08:38.878Z,16.00
2018-09-26T18:11:08.200Z,16.00
2018-09-26T18:13:38.365Z,15.90
2018-09-26T18:16:09.374Z,16.00
2018-09-26T18:18:39.483Z,16.00
2018-09-26T18:21:08.895Z,15.90
2018-09-26T18:23:38.528Z,15.90
2018-09-26T18:26:09.059Z,15.90
2018-09-26T18:28:38.957Z,15.90
2018-09-26T18:31:09.418Z,15.90
2018-09-26T18:33:38.957Z,16.00
2018-09-26T18:36:09.194Z,16.00
2018-09-26T18:38:38.642Z,16.00
2018-09-26T18:41:08.325Z,15.90
2018-09-26T18:43:38.429Z,16.00
2018-09-26T18:46:09.113Z,16.00
2018-09-26T18:48:39.543Z,15.90
2018-09-26T18:51:10.607Z,16.00
2018-09-26T18:53:40.893Z,16.00
2018-09-26T18:56:11.385Z,16.00
2018-09-26T18:58:42.051Z,16.00
2018-09-26T19:01:12.332Z,15.90
2018-09-26T19:03:42.272Z,16.00
2018-09-26T19:06:12.447Z,16.00
2018-09-26T19:08:42.490Z,16.00
2018-09-26T19:11:12.739Z,16.00
2018-09-26T19:13:43.047Z,16.00
2018-09-26T19:16:14.524Z,16.00
2018-09-26T19:18:45.494Z,16.00
2018-09-26T19:21:15.086Z,16.00
2018-09-26T19:23:45.016Z,16.00
2018-09-26T19:26:14.856Z,16.00
2018-09-26T19:28:45.640Z,16.00
2018-09-26T19:31:15.084Z,16.00
2018-09-26T19:33:47.927Z,16.00
2018-09-26T19:36:18.223Z,16.00
2018-09-26T19:38:48.040Z,16.00
2018-09-26T19:41:17.782Z,16.00
2018-09-26T19:43:47.711Z,15.90
2018-09-26T19:46:18.176Z,15.90
2018-09-26T19:48:48.163Z,15.90
2018-09-26T19:51:19.090Z,15.90
2018-09-26T19:53:48.830Z,15.90
2018-09-26T19:56:19.140Z,15.80
2018-09-26T19:58:50.106Z,15.80
2018-09-26T20:01:20.492Z,15.80
2018-09-26T20:03:50.910Z,15.80
2018-09-26T20:06:21.115Z,15.80
2018-09-26T20:08:50.937Z,15.80
2018-09-26T20:11:20.497Z,15.80
2018-09-26T20:13:50.573Z,15.80
2018-09-26T20:16:20.846Z,15.80
2018-09-26T20:18:50.815Z,15.80
2018-09-26T20:23:47.678Z,15.80
2018-09-26T20:26:18.169Z,15.80
2018-09-26T20:28:48.695Z,15.80
2018-09-26T20:31:19.719Z,15.80
2018-09-26T20:33:50.377Z,15.80
2018-09-26T20:36:21.824Z,15.80
2018-09-26T20:38:52.340Z,15.80
2018-09-26T20:41:22.398Z,15.80
2018-09-26T20:43:52.612Z,15.80
2018-09-26T20:46:22.904Z,15.80
2018-09-26T20:48:53.801Z,15.80
2018-09-26T20:51:25.991Z,15.90
2018-09-26T20:53:56.740Z,15.80
2018-09-26T20:56:30.132Z,15.80
2018-09-26T20:59:02.844Z,15.80
2018-09-26T21:01:32.695Z,15.80
2018-09-26T21:04:02.351Z,15.80
2018-09-26T21:06:32.690Z,15.80
2018-09-26T21:09:02.845Z,15.70
2018-09-26T21:11:32.806Z,15.70
2018-09-26T21:14:09.040Z,15.70
2018-09-26T21:16:38.393Z,15.70
2018-09-26T21:19:09.724Z,15.70
2018-09-26T21:21:39.194Z,15.70
2018-09-26T21:24:10.826Z,15.60
2018-09-26T21:26:40.717Z,15.60
2018-09-26T21:29:11.326Z,15.60
2018-09-26T21:31:40.620Z,15.50
2018-09-26T21:34:11.837Z,15.50
2018-09-26T21:36:41.350Z,15.50
2018-09-26T21:39:11.085Z,15.50
2018-09-26T21:41:41.507Z,15.40
2018-09-26T21:44:11.368Z,15.40
2018-09-26T21:46:40.699Z,15.40
2018-09-26T21:49:11.908Z,15.40
2018-09-26T21:51:41.361Z,15.40
2018-09-26T21:54:11.086Z,15.40
2018-09-26T21:56:40.587Z,15.40
2018-09-26T21:59:10.859Z,15.40
2018-09-26T22:01:41.343Z,15.40
2018-09-26T22:04:11.800Z,15.40
2018-09-26T22:06:41.800Z,15.40
2018-09-26T22:09:12.043Z,15.40
2018-09-26T22:11:41.740Z,15.40
2018-09-26T22:14:11.887Z,15.40
2018-09-26T22:16:41.742Z,15.40
2018-09-26T22:19:11.160Z,15.40
2018-09-26T22:21:40.715Z,15.40
2018-09-26T22:24:09.859Z,15.40
2018-09-26T22:26:40.064Z,15.40
2018-09-26T22:29:10.577Z,15.40
2018-09-26T22:31:41.207Z,15.40
2018-09-26T22:34:12.672Z,15.40
2018-09-26T22:36:42.735Z,15.40
2018-09-26T22:39:12.765Z,15.40
2018-09-26T22:41:43.712Z,15.50
2018-09-26T22:44:13.420Z,15.50
2018-09-26T22:46:42.728Z,15.40
2018-09-26T22:49:12.465Z,15.40
2018-09-26T22:51:43.809Z,15.40
2018-09-26T22:54:14.483Z,15.50
2018-09-26T22:56:45.971Z,15.50
2018-09-26T22:59:15.989Z,15.40
2018-09-26T23:01:46.350Z,15.40
2018-09-26T23:04:15.938Z,15.50
2018-09-26T23:06:45.386Z,15.50
2018-09-26T23:09:15.453Z,15.40
2018-09-26T23:11:45.379Z,15.30
2018-09-26T23:14:15.633Z,15.30
2018-09-26T23:16:45.193Z,15.30
2018-09-26T23:19:14.441Z,15.30
2018-09-26T23:21:44.413Z,15.30
2018-09-26T23:24:14.303Z,15.30
2018-09-26T23:26:44.731Z,15.30
2018-09-26T23:29:14.995Z,15.30
2018-09-26T23:31:47.039Z,15.30
2018-09-26T23:34:17.165Z,15.30
2018-09-26T23:36:47.690Z,15.30
2018-09-26T23:39:20.886Z,15.30
2018-09-26T23:41:51.006Z,15.30
2018-09-26T23:44:20.460Z,15.30
2018-09-26T23:46:50.426Z,15.40
2018-09-26T23:49:20.258Z,15.30
2018-09-26T23:51:49.794Z,15.30
2018-09-26T23:54:20.251Z,15.30
2018-09-26T23:56:49.855Z,15.30
2018-09-26T23:59:19.875Z,15.30
